createdAt,value
2023-02-02T00:06:52.581Z,1010
2023-02-02T00:22:26.921Z,1010.1
2023-02-02T00:38:01.258Z,1010
2023-02-02T00:53:35.604Z,1010.1
2023-02-02T01:09:09.928Z,1010.3
2023-02-02T01:24:44.256Z,1010.3
2023-02-02T01:40:18.630Z,1010.3
2023-02-02T01:55:52.711Z,1010.4
2023-02-02T02:11:27.036Z,1010.4
2023-02-02T02:27:01.373Z,1010.5
2023-02-02T02:42:35.706Z,1010.6
2023-02-02T02:58:10.053Z,1010.6
2023-02-02T03:13:44.395Z,1010.6
2023-02-02T03:29:18.722Z,1010.7
2023-02-02T03:44:53.064Z,1010.7
2023-02-02T04:00:27.406Z,1010.8
2023-02-02T04:16:01.580Z,1010.8
2023-02-02T04:31:36.371Z,1011.2
2023-02-02T04:47:10.758Z,1011.3
2023-02-02T05:02:45.089Z,1011.3
2023-02-02T05:18:19.446Z,1011.4
2023-02-02T05:33:53.783Z,1011.6
2023-02-02T05:49:28.134Z,1011.9
2023-02-02T06:05:02.501Z,1012
2023-02-02T06:20:36.858Z,1012
2023-02-02T06:36:11.211Z,1012
2023-02-02T06:51:45.543Z,1012.2
2023-02-02T07:07:19.973Z,1012.2
2023-02-02T07:22:54.333Z,1012.1
2023-02-02T07:38:28.793Z,1012.2
2023-02-02T07:54:03.209Z,1012.3
2023-02-02T08:09:37.660Z,1012.4
2023-02-02T08:25:12.062Z,1012.7
2023-02-02T08:40:46.491Z,1013
2023-02-02T08:56:20.910Z,1013.1
2023-02-02T09:11:55.470Z,1013.4
2023-02-02T09:27:29.825Z,1013.5
2023-02-02T09:43:04.194Z,1014
2023-02-02T09:58:38.562Z,1013.8
2023-02-02T10:14:32.302Z,1014.1
2023-02-02T10:30:07.070Z,1014.1
2023-02-02T10:45:41.787Z,1014.3
2023-02-02T11:01:16.589Z,1014.4
2023-02-02T11:16:51.442Z,1014.3
2023-02-02T11:32:25.871Z,1014.3
2023-02-02T11:48:00.244Z,1014.5
2023-02-02T12:03:34.645Z,1014.6
2023-02-02T12:19:09.493Z,1014.8
2023-02-02T12:34:43.932Z,1014.8
2023-02-02T12:50:18.366Z,1014.7
2023-02-02T13:05:52.735Z,1014.8
2023-02-02T13:21:27.486Z,1015
2023-02-02T13:37:01.859Z,1015.2
2023-02-02T13:52:36.340Z,1015.3
2023-02-02T14:08:10.783Z,1015.5
2023-02-02T14:23:45.184Z,1015.7
2023-02-02T14:39:19.536Z,1015.8
2023-02-02T14:54:53.907Z,1016
2023-02-02T15:10:28.278Z,1016.2
2023-02-02T15:26:02.746Z,1016.6
2023-02-02T15:41:37.381Z,1016.8
2023-02-02T15:57:11.728Z,1017.1
2023-02-02T16:12:46.114Z,1017.4
2023-02-02T16:28:20.272Z,1017.7
2023-02-02T16:43:55.478Z,1018
2023-02-02T16:59:29.930Z,1018.2
2023-02-02T17:15:04.686Z,1018.2
2023-02-02T17:30:43.562Z,1018.5
2023-02-02T17:46:18.865Z,1018.7
2023-02-02T18:01:53.296Z,1018.7
2023-02-02T18:17:27.677Z,1018.8
2023-02-02T18:33:02.085Z,1018.9
2023-02-02T18:48:36.452Z,1018.9
2023-02-02T19:04:10.950Z,1018.9
2023-02-02T19:19:45.428Z,1018.7
2023-02-02T19:35:19.792Z,1018.8
2023-02-02T19:50:54.232Z,1018.9
2023-02-02T20:06:28.592Z,1019
2023-02-02T20:22:08.325Z,1019.2
2023-02-02T20:37:42.669Z,1019.2
2023-02-02T20:53:17.012Z,1019.2
2023-02-02T21:08:51.389Z,1019
2023-02-02T21:24:25.763Z,1018.9
2023-02-02T21:40:00.199Z,1018.7
2023-02-02T21:55:36.104Z,1018.6
2023-02-02T22:11:10.493Z,1018.4
2023-02-02T22:26:44.928Z,1018.3
2023-02-02T22:42:19.273Z,1018.1
2023-02-02T22:57:53.622Z,1018
2023-02-02T23:13:28.010Z,1017.8
2023-02-02T23:29:02.133Z,1017.8
2023-02-02T23:44:36.513Z,1017.7
